Stations météo

réclame
Mon MeteoGroup
Somosierra, Espagne (8145): Température de l'air & dewpoint: 12.08.2018 02:00:00 - 18.08.2018 02:00:00 (CEST)Somosierra, Espagne (8145): Vitesse du vent & gusts: 12.08.2018 02:00:00 - 18.08.2018 02:00:00 (CEST)Somosierra, Espagne (8145): Direction du vent: 12.08.2018 02:00:00 - 18.08.2018 02:00:00 (CEST)Somosierra, Espagne (8145): Quantités de précipitations: 12.08.2018 02:00:00 - 18.08.2018 02:00:00 (CEST)
Date & Time tt [°C] td [°C] ff [km/h] ff [knt] fx [km/h] fx [knt] dd rr [mm]
18.08.2018 02:00:00 - - - - - - - -
18.08.2018 01:00:00 13,0 7,8 1 1 4 2 SSE 0,0
18.08.2018 00:00:00 13,4 8,0 0 0 1 1 ESE 0,0
17.08.2018 23:00:00 13,7 8,4 0 0 4 2 NNE 0,0
17.08.2018 22:00:00 14,8 8,9 1 0 11 6 NNE 0,0
17.08.2018 21:00:00 17,0 -0,3 1 1 13 7 NNE 0,0
17.08.2018 20:00:00 19,4 - 3 1 18 10 NNW -
17.08.2018 19:00:00 20,7 - 5 3 19 10 NNW 0,0
17.08.2018 18:00:00 21,1 - 3 2 21 11 N 0,0
17.08.2018 17:00:00 24,0 - 4 2 23 12 NNW 0,0
17.08.2018 16:00:00 23,0 - 4 2 22 12 N 0,0
17.08.2018 15:00:00 22,7 - 5 3 21 11 N 0,0
17.08.2018 14:00:00 23,0 - 4 2 20 11 NNW -
17.08.2018 13:00:00 21,6 - 4 2 19 10 N 0,0
17.08.2018 12:00:00 20,1 2,9 5 3 18 10 N 0,0
17.08.2018 11:00:00 17,7 12,3 4 2 13 7 N 0,0
17.08.2018 10:00:00 15,6 10,2 3 2 10 5 N 0,0
17.08.2018 09:00:00 13,9 8,5 4 2 12 7 NNE 0,0
17.08.2018 08:00:00 13,3 8,0 2 1 11 6 SSE -
17.08.2018 07:00:00 13,2 7,8 3 2 13 7 S 0,0
17.08.2018 06:00:00 13,5 8,1 5 3 12 7 S 0,0
17.08.2018 05:00:00 14,3 8,9 5 3 13 7 SSE 0,0
17.08.2018 04:00:00 14,3 8,9 6 3 22 12 S 0,0
17.08.2018 03:00:00 14,9 9,4 13 7 21 11 S 0,0
17.08.2018 02:00:00 15,6 10,2 11 6 19 10 S -
17.08.2018 01:00:00 16,0 6,7 8 4 14 7 S 0,0
17.08.2018 00:00:00 17,5 - 5 3 23 12 S 0,0
16.08.2018 23:00:00 17,2 - 2 1 10 5 ESE 0,0
16.08.2018 22:00:00 18,4 - 0 0 13 7 N 0,0
16.08.2018 21:00:00 19,9 - 1 1 8 5 N 0,0
16.08.2018 20:00:00 - - - - - - - -
16.08.2018 19:00:00 22,3 - 1 1 16 9 SSE 0,0
16.08.2018 18:00:00 24,1 - 6 3 20 11 S 0,0
16.08.2018 17:00:00 23,4 - 7 4 21 11 SSW 0,0
16.08.2018 16:00:00 22,1 - 5 3 24 13 S 0,0
16.08.2018 15:00:00 23,3 - 11 6 22 12 S 0,0
16.08.2018 14:00:00 23,4 - 10 5 26 14 S -
16.08.2018 13:00:00 22,2 -8,6 10 5 23 12 S 0,0
16.08.2018 12:00:00 20,9 1,7 13 7 24 13 S 0,0
16.08.2018 11:00:00 19,5 7,6 13 7 21 11 S 0,0
16.08.2018 10:00:00 18,8 - 8 4 15 8 S 0,0
16.08.2018 09:00:00 15,6 - 3 2 5 3 S 0,0
16.08.2018 08:00:00 15,1 - 0 0 5 3 ENE -
16.08.2018 07:00:00 14,8 - 1 1 9 5 ENE 0,0
16.08.2018 06:00:00 15,2 9,8 0 0 7 4 SW 0,0
16.08.2018 05:00:00 15,8 -4,8 3 2 9 5 S 0,0
16.08.2018 04:00:00 17,1 - 6 3 14 8 SE 0,0
16.08.2018 03:00:00 17,3 - 6 4 11 6 SSE 0,0
16.08.2018 02:00:00 16,7 - 3 1 9 5 S -
16.08.2018 01:00:00 16,9 - 2 1 5 3 N 0,0
16.08.2018 00:00:00 16,7 - 1 0 9 5 N 0,0
15.08.2018 23:00:00 17,4 - 1 1 6 3 N 0,0
15.08.2018 22:00:00 18,2 - 1 1 5 3 NNE 0,0
15.08.2018 21:00:00 20,9 - 0 0 4 2 N 0,0
15.08.2018 20:00:00 23,6 - 0 0 4 2 N -
15.08.2018 19:00:00 23,8 - 1 1 8 4 S 0,0
15.08.2018 18:00:00 21,7 - 5 3 12 7 SE 0,0
15.08.2018 17:00:00 24,4 - 8 5 18 10 S 0,0
15.08.2018 16:00:00 25,5 - 3 2 17 9 SSE 0,0
15.08.2018 15:00:00 25,2 - 3 2 19 11 SSE 0,0
15.08.2018 14:00:00 24,4 - 9 5 23 12 S -
15.08.2018 13:00:00 22,9 - 11 6 22 12 S 0,0
15.08.2018 12:00:00 21,8 -7,1 11 6 24 13 S 0,0
15.08.2018 11:00:00 20,1 2,9 13 7 23 12 S 0,0
15.08.2018 10:00:00 18,3 - 15 8 23 12 S 0,0
15.08.2018 09:00:00 16,4 - 11 6 17 9 S 0,0
15.08.2018 08:00:00 12,6 -2,2 10 6 13 7 S -
15.08.2018 07:00:00 12,7 -8,6 5 3 11 6 S 0,0
15.08.2018 06:00:00 12,8 - 5 3 12 7 S 0,0
15.08.2018 05:00:00 13,1 - 1 1 5 3 S 0,0
15.08.2018 04:00:00 13,3 - 2 1 6 4 N 0,0
15.08.2018 03:00:00 14,1 - 1 1 9 5 NNE 0,0
15.08.2018 02:00:00 14,5 - 1 0 6 3 ENE -
15.08.2018 01:00:00 13,6 - 1 0 10 5 NNE 0,0
15.08.2018 00:00:00 13,4 - 1 1 8 4 NNE 0,0
14.08.2018 23:00:00 13,8 - 1 1 8 5 NNE 0,0
14.08.2018 22:00:00 14,8 - 3 1 9 5 N 0,0
14.08.2018 21:00:00 17,2 - 3 2 13 7 N 0,0
14.08.2018 20:00:00 22,1 - 3 2 21 11 NNW -
14.08.2018 19:00:00 24,5 - 5 3 22 12 N 0,0
14.08.2018 18:00:00 24,7 - 4 2 21 11 N 0,0
14.08.2018 17:00:00 25,0 - 5 3 22 12 NNW 0,0
14.08.2018 16:00:00 24,2 - 5 3 22 12 N 0,0
14.08.2018 15:00:00 23,4 - 4 2 23 12 NNW 0,0
14.08.2018 14:00:00 22,4 - 6 3 22 12 N -
14.08.2018 13:00:00 22,5 - 5 3 19 11 NNW 0,0
14.08.2018 12:00:00 20,2 - 5 3 19 10 NNW 0,0
14.08.2018 11:00:00 18,5 - 6 3 19 11 N 0,0
14.08.2018 10:00:00 17,1 - 5 3 16 8 N 0,0
14.08.2018 09:00:00 15,1 3,2 4 2 12 6 N 0,0
14.08.2018 08:00:00 12,4 7,1 1 1 8 4 N -
14.08.2018 07:00:00 12,0 6,7 0 0 3 1 NE 0,0
14.08.2018 06:00:00 12,3 3,0 0 0 5 3 N 0,0
14.08.2018 05:00:00 12,5 - 1 1 7 4 N 0,0
14.08.2018 04:00:00 13,2 - 1 1 10 5 N 0,0
14.08.2018 03:00:00 13,4 - 2 1 10 5 NNW 0,0
14.08.2018 02:00:00 13,7 - 1 1 9 5 NNW -
14.08.2018 01:00:00 13,8 - 1 1 12 7 N 0,0
14.08.2018 00:00:00 14,1 - 3 1 10 5 N 0,0
13.08.2018 23:00:00 15,1 - 1 1 9 5 N 0,0
13.08.2018 22:00:00 15,6 - 2 1 10 5 N 0,0
13.08.2018 21:00:00 17,6 - 1 1 15 8 N 0,0
13.08.2018 20:00:00 22,1 - 1 1 16 9 NW -
13.08.2018 19:00:00 23,8 - 5 3 24 13 NNW 0,0
13.08.2018 18:00:00 24,1 - 5 3 23 13 N 0,0
13.08.2018 17:00:00 23,8 - 6 3 23 12 NW 0,0
13.08.2018 16:00:00 24,4 - 6 3 26 14 NNW 0,0
13.08.2018 15:00:00 23,1 - 6 4 22 12 N 0,0
13.08.2018 14:00:00 22,4 - 5 3 24 13 NW -
13.08.2018 13:00:00 21,3 -7,5 5 3 21 11 N 0,0
13.08.2018 12:00:00 19,3 7,1 3 2 19 10 N 0,0
13.08.2018 11:00:00 17,5 12,0 6 3 17 9 N 0,0
13.08.2018 10:00:00 15,8 10,3 7 4 17 9 N 0,0
13.08.2018 09:00:00 14,7 9,3 4 2 11 6 N 0,0
13.08.2018 08:00:00 11,8 6,5 2 1 8 5 N -
13.08.2018 07:00:00 11,4 6,1 4 2 9 5 N 0,0
13.08.2018 06:00:00 12,9 7,6 3 1 20 11 N 0,0
13.08.2018 05:00:00 14,5 8,4 2 1 22 12 N 0,0
13.08.2018 04:00:00 15,3 3,4 2 1 21 11 NW 0,0
13.08.2018 03:00:00 15,6 -1,0 1 1 22 12 N 0,0
13.08.2018 02:00:00 16,1 - 1 1 28 15 NW -
13.08.2018 01:00:00 16,3 - 11 6 25 14 N 0,0
13.08.2018 00:00:00 16,4 - 9 5 23 12 N 0,0
12.08.2018 23:00:00 14,6 -12,8 5 3 15 8 N 0,0
12.08.2018 22:00:00 16,8 - 1 0 19 11 N 0,0
12.08.2018 21:00:00 17,8 1,3 1 1 11 6 NNW 0,0
12.08.2018 20:00:00 18,0 6,8 4 2 16 9 S -
12.08.2018 19:00:00 20,2 - 6 3 16 8 S 0,0
12.08.2018 18:00:00 19,0 13,4 2 1 23 12 S 0,0
12.08.2018 17:00:00 16,9 11,3 6 3 18 10 S 0,1
12.08.2018 16:00:00 15,5 10,0 11 6 46 25 SSE 2,8
12.08.2018 15:00:00 19,1 12,6 8 4 27 15 ESE 0,4
12.08.2018 14:00:00 14,8 9,4 14 8 38 20 SE -
12.08.2018 13:00:00 22,4 - 9 5 21 11 S 0,2
12.08.2018 12:00:00 21,5 15,8 5 3 13 7 SSW 0,0
12.08.2018 11:00:00 18,8 13,3 5 3 22 12 SW 1,6
12.08.2018 10:00:00 19,7 14,0 8 4 16 9 S 0,0
12.08.2018 09:00:00 18,5 13,0 7 4 13 7 S 0,0
12.08.2018 08:00:00 16,4 10,9 5 3 12 6 S -
12.08.2018 07:00:00 15,4 9,9 5 3 14 7 SSE 0,0
12.08.2018 06:00:00 15,6 10,2 7 4 11 6 S 0,0
12.08.2018 05:00:00 16,4 9,3 5 3 16 9 S 0,0
12.08.2018 04:00:00 17,3 - 6 3 16 9 SE 0,0
12.08.2018 03:00:00 15,9 - 8 4 19 10 S 0,0
12.08.2018 02:00:00 19,1 - 4 2 8 5 E -

tt = Température de l'air
td = dewpoint
ff = Vitesse du vent
fx = gusts
dd = Direction du vent
rr = Quantités de précipitations

stations d'obs. à proximité